createdAt,value
2023-03-22T00:02:16.608Z,9.98
2023-03-22T00:04:45.744Z,10.43
2023-03-22T00:07:13.460Z,13.13
2023-03-22T00:09:41.270Z,10.73
2023-03-22T00:12:09.110Z,12.20
2023-03-22T00:14:37.108Z,10.52
2023-03-22T00:17:04.820Z,10.30
2023-03-22T00:19:34.080Z,10.05
2023-03-22T00:22:03.623Z,12.27
2023-03-22T00:24:31.361Z,11.27
2023-03-22T00:26:59.078Z,11.32
2023-03-22T00:29:26.797Z,13.43
2023-03-22T00:31:55.988Z,8.75
2023-03-22T00:34:23.665Z,10.13
2023-03-22T00:36:51.873Z,11.15
2023-03-22T00:39:21.035Z,12.60
2023-03-22T00:41:48.872Z,18.92
2023-03-22T00:44:16.646Z,10.70
2023-03-22T00:46:44.309Z,12.90
2023-03-22T00:49:12.401Z,10.75
2023-03-22T00:51:40.070Z,11.45
2023-03-22T00:54:07.745Z,12.98
2023-03-22T00:56:37.641Z,11.43
2023-03-22T00:59:08.105Z,10.93
2023-03-22T01:01:35.794Z,12.50
2023-03-22T01:04:03.726Z,12.57
2023-03-22T01:06:31.402Z,11.90
2023-03-22T01:08:59.062Z,11.45
2023-03-22T01:11:27.309Z,11.40
2023-03-22T01:13:57.200Z,14.55
2023-03-22T01:16:25.010Z,13.07
2023-03-22T01:18:52.771Z,12.60
2023-03-22T01:21:20.647Z,15.07
2023-03-22T01:23:48.303Z,11.60
2023-03-22T01:26:16.285Z,14.82
2023-03-22T01:28:43.960Z,15.37
2023-03-22T01:31:13.129Z,13.85
2023-03-22T01:33:40.810Z,14.48
2023-03-22T01:36:09.436Z,18.25
2023-03-22T01:38:37.422Z,14.38
2023-03-22T01:41:05.310Z,13.40
2023-03-22T01:43:33.112Z,16.13
2023-03-22T01:46:01.029Z,13.90
2023-03-22T01:48:34.158Z,16.10
2023-03-22T01:51:07.161Z,12.50
2023-03-22T01:53:50.396Z,14.07
2023-03-22T01:56:18.525Z,15.32
2023-03-22T01:58:47.193Z,14.30
2023-03-22T02:01:15.626Z,15.63
2023-03-22T02:03:48.978Z,11.98
2023-03-22T02:06:16.970Z,14.88
2023-03-22T02:08:44.750Z,13.10
2023-03-22T02:11:15.946Z,13.68
2023-03-22T02:14:11.663Z,12.07
2023-03-22T02:16:47.019Z,14.15
2023-03-22T02:19:42.386Z,13.65
2023-03-22T02:22:29.225Z,15.15
2023-03-22T02:25:13.719Z,18.13
2023-03-22T02:28:10.212Z,15.18
2023-03-22T02:31:03.748Z,16.33
2023-03-22T02:33:55.086Z,16.40
2023-03-22T02:36:35.438Z,16.65
2023-03-22T02:39:15.473Z,12.30
2023-03-22T02:41:58.810Z,14.43
2023-03-22T02:44:29.065Z,18.67
2023-03-22T02:47:01.962Z,18.23
2023-03-22T02:49:55.342Z,16.95
2023-03-22T02:52:27.923Z,15.60
2023-03-22T02:55:04.568Z,14.77
2023-03-22T02:57:36.774Z,14.07
2023-03-22T03:00:10.514Z,14.85
2023-03-22T03:02:39.287Z,15.27
2023-03-22T03:05:08.833Z,19.38
2023-03-22T03:07:36.707Z,15.03
2023-03-22T03:10:07.244Z,12.77
2023-03-22T03:12:35.039Z,11.33
2023-03-22T03:15:02.886Z,14.80
2023-03-22T03:17:41.988Z,12.75
2023-03-22T03:20:30.004Z,16.20
2023-03-22T03:23:09.325Z,14.88
2023-03-22T03:25:43.530Z,17.40
2023-03-22T03:28:17.556Z,16.08
2023-03-22T03:30:50.427Z,16.15
2023-03-22T03:33:19.514Z,17.38
2023-03-22T03:35:50.234Z,15.37
2023-03-22T03:38:20.444Z,16.73
2023-03-22T03:40:52.053Z,16.77
2023-03-22T03:43:20.237Z,13.57
2023-03-22T03:45:57.071Z,15.02
2023-03-22T03:48:27.999Z,14.50
2023-03-22T03:50:57.465Z,15.07
2023-03-22T03:53:25.310Z,16.48
2023-03-22T03:55:54.463Z,15.05
2023-03-22T03:58:22.148Z,14.90
2023-03-22T04:00:50.615Z,16.77
2023-03-22T04:03:18.412Z,21.05
2023-03-22T04:05:46.096Z,14.32
2023-03-22T04:08:13.912Z,15.52
2023-03-22T04:10:41.855Z,12.48
2023-03-22T04:13:10.982Z,13.07
2023-03-22T04:15:38.742Z,13.80
2023-03-22T04:18:07.129Z,14.90
2023-03-22T04:20:34.816Z,16.55
2023-03-22T04:23:02.543Z,15.45
2023-03-22T04:25:30.508Z,17.57
2023-03-22T04:28:00.567Z,17.10
2023-03-22T04:30:30.882Z,15.85
2023-03-22T04:32:58.537Z,16.98
2023-03-22T04:35:26.341Z,14.47
2023-03-22T04:37:54.024Z,14.65
2023-03-22T04:40:21.778Z,17.83
2023-03-22T04:42:49.681Z,17.67
2023-03-22T04:45:17.535Z,14.63
2023-03-22T04:47:46.634Z,17.98
2023-03-22T04:50:14.331Z,15.32
2023-03-22T04:52:42.178Z,18.40
2023-03-22T04:55:10.409Z,19.13
2023-03-22T04:57:38.170Z,15.75
2023-03-22T05:00:08.541Z,17.23
2023-03-22T05:02:40.009Z,14.30
2023-03-22T05:05:10.526Z,17.88
2023-03-22T05:07:39.253Z,17.55
2023-03-22T05:10:08.245Z,16.90
2023-03-22T05:12:35.900Z,18.48
2023-03-22T05:15:06.131Z,18.25
2023-03-22T05:17:33.847Z,19.73
2023-03-22T05:20:08.605Z,16.67
2023-03-22T05:22:40.581Z,19.70
2023-03-22T05:25:10.187Z,18.13
2023-03-22T05:27:39.114Z,18.23
2023-03-22T05:30:08.524Z,17.52
2023-03-22T05:32:37.578Z,18.50
2023-03-22T05:35:06.439Z,19.48
2023-03-22T05:37:34.138Z,20.07
2023-03-22T05:40:05.333Z,19.88
2023-03-22T05:42:33.405Z,15.60
2023-03-22T05:45:01.117Z,19.85
2023-03-22T05:47:28.816Z,21.20
2023-03-22T05:49:56.532Z,17.00
2023-03-22T05:52:24.226Z,16.08
2023-03-22T05:54:51.882Z,17.17
2023-03-22T05:57:21.236Z,15.35
2023-03-22T05:59:48.926Z,17.77
2023-03-22T06:02:16.713Z,15.38
2023-03-22T06:04:44.613Z,15.95
2023-03-22T06:07:12.439Z,15.43
2023-03-22T06:09:40.372Z,17.30
2023-03-22T06:12:08.480Z,14.88
2023-03-22T06:14:37.655Z,13.70
2023-03-22T06:17:05.585Z,14.80
2023-03-22T06:19:33.425Z,14.68
2023-03-22T06:22:01.769Z,13.35
2023-03-22T06:24:29.539Z,12.35
2023-03-22T06:26:57.224Z,18.92
2023-03-22T06:29:24.916Z,11.63
2023-03-22T06:31:53.983Z,11.43
2023-03-22T06:34:21.719Z,15.60
2023-03-22T06:36:51.551Z,16.27
2023-03-22T06:39:19.206Z,17.58
2023-03-22T06:41:47.336Z,11.68
2023-03-22T06:44:15.774Z,17.35
2023-03-22T06:46:43.518Z,12.32
2023-03-22T06:49:12.639Z,12.35
2023-03-22T06:51:40.388Z,11.17
2023-03-22T06:54:08.066Z,13.18
2023-03-22T06:56:35.754Z,10.40
2023-03-22T06:59:03.460Z,13.93
2023-03-22T07:01:31.313Z,12.05
2023-03-22T07:03:59.076Z,11.82
2023-03-22T07:06:28.369Z,11.30
2023-03-22T07:08:56.456Z,10.10
2023-03-22T07:11:25.937Z,10.95
2023-03-22T07:13:54.221Z,13.00
2023-03-22T07:16:22.630Z,13.83
2023-03-22T07:18:50.767Z,12.07
2023-03-22T07:21:18.448Z,10.83
2023-03-22T07:23:49.446Z,13.23
2023-03-22T07:26:17.109Z,15.05
2023-03-22T07:28:44.892Z,11.40
2023-03-22T07:31:13.651Z,14.90
2023-03-22T07:33:41.604Z,13.30
2023-03-22T07:36:10.501Z,8.80
2023-03-22T07:38:38.400Z,7.63
2023-03-22T07:41:08.060Z,9.25
2023-03-22T07:43:50.802Z,6.63
2023-03-22T07:46:20.634Z,7.40
2023-03-22T07:48:48.332Z,9.02
2023-03-22T07:51:16.079Z,8.65
2023-03-22T07:53:44.023Z,7.40
2023-03-22T07:56:13.081Z,8.60
2023-03-22T07:58:40.755Z,10.30
2023-03-22T08:01:10.818Z,6.90
2023-03-22T08:03:39.196Z,8.88
2023-03-22T08:06:08.558Z,12.68
2023-03-22T08:08:37.096Z,9.60
2023-03-22T08:11:04.790Z,5.05
2023-03-22T08:13:33.883Z,6.00
2023-03-22T08:16:02.033Z,4.47
2023-03-22T08:18:29.707Z,8.27
2023-03-22T08:20:58.836Z,8.52
2023-03-22T08:23:40.495Z,8.18
2023-03-22T08:26:09.623Z,3.55
2023-03-22T08:28:38.760Z,7.77
2023-03-22T08:31:13.946Z,8.40
2023-03-22T08:33:43.140Z,6.72
2023-03-22T08:36:13.677Z,5.68
2023-03-22T08:38:42.410Z,6.73
2023-03-22T08:41:10.747Z,7.15
2023-03-22T08:43:39.848Z,7.20
2023-03-22T08:46:07.842Z,4.90
2023-03-22T08:48:37.921Z,8.93
2023-03-22T08:51:06.799Z,10.65
2023-03-22T08:53:34.675Z,7.72
2023-03-22T08:56:03.743Z,17.52
2023-03-22T08:58:31.605Z,6.90
2023-03-22T09:01:00.760Z,6.72
2023-03-22T09:03:28.644Z,6.20
2023-03-22T09:05:56.309Z,8.50
2023-03-22T09:08:24.013Z,6.80
2023-03-22T09:10:52.280Z,6.05
2023-03-22T09:13:20.428Z,10.60
2023-03-22T09:15:48.808Z,8.10
2023-03-22T09:18:17.907Z,4.88
2023-03-22T09:20:46.027Z,10.63
2023-03-22T09:23:15.160Z,7.63
2023-03-22T09:25:54.198Z,6.20
2023-03-22T09:28:21.942Z,5.82
2023-03-22T09:30:51.287Z,7.07
2023-03-22T09:33:20.545Z,4.20
2023-03-22T09:35:48.510Z,6.18
2023-03-22T09:38:16.169Z,3.80
2023-03-22T09:40:49.885Z,7.32
2023-03-22T09:43:17.710Z,6.20
2023-03-22T09:45:48.296Z,5.67
2023-03-22T09:48:21.731Z,4.10
2023-03-22T09:50:50.952Z,5.25
2023-03-22T09:53:19.406Z,2.15
2023-03-22T09:55:53.777Z,6.85
2023-03-22T09:58:27.104Z,6.88
2023-03-22T10:00:59.078Z,6.40
2023-03-22T10:03:40.636Z,6.50
2023-03-22T10:06:15.383Z,7.80
2023-03-22T10:08:51.910Z,7.63
2023-03-22T10:11:26.740Z,10.18
2023-03-22T10:14:06.542Z,3.53
2023-03-22T10:16:35.725Z,4.43
2023-03-22T10:19:08.795Z,5.38
2023-03-22T10:21:37.031Z,3.47
2023-03-22T10:24:09.330Z,7.30
2023-03-22T10:26:40.193Z,8.63
2023-03-22T10:29:12.919Z,8.20
2023-03-22T10:31:44.085Z,5.15
2023-03-22T10:34:20.850Z,7.15
2023-03-22T10:36:50.784Z,4.50
2023-03-22T10:39:28.616Z,5.80
2023-03-22T10:41:58.242Z,7.47
2023-03-22T10:44:27.862Z,11.65
2023-03-22T10:46:57.490Z,7.20
2023-03-22T10:49:31.709Z,5.95
2023-03-22T10:52:10.723Z,4.80
2023-03-22T10:54:38.511Z,6.50
2023-03-22T10:57:08.500Z,10.90
2023-03-22T10:59:49.065Z,7.93
2023-03-22T11:02:22.454Z,8.68
2023-03-22T11:04:53.661Z,8.00
2023-03-22T11:07:34.811Z,6.28
2023-03-22T11:10:24.529Z,7.97
2023-03-22T11:13:26.055Z,8.50
2023-03-22T11:15:56.750Z,9.30
2023-03-22T11:18:26.095Z,8.05
2023-03-22T11:20:58.444Z,4.13
2023-03-22T11:23:27.340Z,6.85
2023-03-22T11:25:57.737Z,9.30
2023-03-22T11:28:30.101Z,7.18
2023-03-22T11:31:07.667Z,5.93
2023-03-22T11:33:35.828Z,6.65
2023-03-22T11:36:07.660Z,6.20
2023-03-22T11:38:38.870Z,8.00
2023-03-22T11:41:09.359Z,9.05
2023-03-22T11:43:38.642Z,7.10
2023-03-22T11:46:08.453Z,6.20
2023-03-22T11:48:37.500Z,8.93
2023-03-22T11:51:09.960Z,9.15
2023-03-22T11:53:40.738Z,5.78
2023-03-22T11:56:11.157Z,5.18
2023-03-22T11:58:51.823Z,6.40
2023-03-22T12:01:22.575Z,6.93
2023-03-22T12:03:53.415Z,8.10
2023-03-22T12:06:24.814Z,5.93
2023-03-22T12:08:56.563Z,11.80
2023-03-22T12:11:29.102Z,9.43
2023-03-22T12:13:59.295Z,8.77
2023-03-22T12:16:31.510Z,7.75
2023-03-22T12:19:06.296Z,7.35
2023-03-22T12:24:33.981Z,12.25
2023-03-22T12:27:06.638Z,10.80
2023-03-22T12:29:35.098Z,11.32
2023-03-22T12:32:26.679Z,10.65
2023-03-22T12:34:57.985Z,8.38
2023-03-22T12:37:38.377Z,8.18
2023-03-22T12:40:16.629Z,5.20
2023-03-22T12:42:54.120Z,11.35
2023-03-22T12:45:27.403Z,12.50
2023-03-22T12:47:58.455Z,8.75
2023-03-22T12:50:30.482Z,9.10
2023-03-22T12:52:58.711Z,7.47
2023-03-22T12:55:31.444Z,8.05
2023-03-22T12:57:59.555Z,5.97
2023-03-22T13:00:29.475Z,6.25
2023-03-22T13:03:01.270Z,10.20
2023-03-22T13:05:30.932Z,7.47
2023-03-22T13:11:01.313Z,8.73
2023-03-22T13:13:42.429Z,7.85
2023-03-22T13:16:24.566Z,7.40
2023-03-22T13:19:01.870Z,7.55
2023-03-22T13:21:31.545Z,7.00
2023-03-22T13:24:02.107Z,8.55
2023-03-22T13:26:36.874Z,9.63
2023-03-22T13:29:11.995Z,9.23
2023-03-22T13:31:44.074Z,6.82
2023-03-22T13:34:17.957Z,4.93
2023-03-22T13:36:56.758Z,5.57
2023-03-22T13:39:28.330Z,6.45
2023-03-22T13:42:08.769Z,7.30
2023-03-22T13:44:42.888Z,4.78
2023-03-22T13:47:31.504Z,5.60
2023-03-22T13:50:02.284Z,7.50
2023-03-22T13:52:35.871Z,7.13
2023-03-22T13:55:04.608Z,4.30
2023-03-22T13:57:56.966Z,4.85
2023-03-22T14:00:41.351Z,6.40
2023-03-22T14:03:16.239Z,4.82
2023-03-22T14:05:46.164Z,6.95
2023-03-22T14:10:55.388Z,5.90
2023-03-22T14:13:30.827Z,4.07
2023-03-22T14:16:01.090Z,4.72
2023-03-22T14:18:30.554Z,8.68
2023-03-22T14:21:00.197Z,4.65
